KLPC

Lompoc Airport

Lompoc, California, USA
METAR KLPC 201756Z AUTO 00000KT 10SM CLR 27/03 A2997 RMK AO2 SLP150 T02670028 10267 20078 58007
Observed Flight Rules
Oct-20 @ 17:56 UTC (5 minutes ago) Visual Flight Rules
Visibility Clouds
10 miles
  • Clear skies
Temperatures Readings
Current 27°C / 81°F
Dewpoint 3°C / 37°F
Humidity 21%
Altimeter 29.97" Hg
Pressure 1015 hPa
Elevation 27
METAR KLPC 201756Z AUTO 00000KT 10SM CLR 27/03 A2997 RMK AO2 SLP150 T02670028 10267 20078 58007
Observed Flight Rules
Oct-20 @ 17:56 UTC
(5 minutes ago)
VFR
Clouds
  • Clear skies
Temperature Dewpoint
27°C / 81°F 3°C / 37°F
Humidity Altimeter Pressure
21% 29.97" Hg 1015 hPa